Modlin Airport Warsaw PL
ICAO: EPMO
IATA: WMI
Category: Large
Scheduled Services: No

Elevation: 341 ft
TransAlt. 18000 ft.

Airport Communications:
INFO:124.5

EPMO Zoom In..

If you have problems with the map follow the link
https://www.worldairports.se/pages/airport.php?
ICAO=EPMO

Runways:

(A) RW 08 length 8202 ft width 148 ft
---- / hdg 77

(B) RW 26 length 8202 ft width 148 ft
---- / hdg 257

Location; EPMO
Day. 14 / Time. 09.00 Zulu
* QNH: 1013
* Temperature: 05° c. 41°f.
* Wind from: 200° Speed 05 kn.
Dewpoint: 03° c.
Visibility: 10 km or more.
Clouds: Broken 800 ft.

EPMO 140900Z 20005KT 9999 BKN008 05/03 Q1013


Wind From 200°
Speed 05 kn.

 
 
jpsmedia worldairports.se 2019   terms of use